Time;durP1;ratioP1;P1;durP2;ratioP2;P2;SDS_P1;SDS_P2;PMS_P1;PMS_P2;Temp;Humidity;BMP_temperature;BMP_pressure;BME280_temperature;BME280_humidity;BME280_pressure;Samples;Min_cycle;Max_cycle;Signal;HPM_P1;HPM_P2
2024/03/09 00:00:56;;;;;;;47.03;18.48;;;1.60;99.90;;;0.03;84.45;101311.38;4951870;28;20117;-85
2024/03/09 00:03:29;;;;;;;44.92;19.58;;;1.50;99.90;;;0.04;84.56;101307.91;4973680;28;20030;-85
2024/03/09 00:05:57;;;;;;;59.42;23.02;;;1.60;99.90;;;0.06;84.99;101311.38;4931923;28;20050;-86
2024/03/09 00:08:24;;;;;;;42.20;18.85;;;;;;;0.05;85.14;101304.47;4925412;28;20093;-86
2024/03/09 00:10:58;;;;;;;50.25;20.02;;;1.60;99.90;;;0.05;85.09;101301.03;4988657;28;20045;-85
2024/03/09 00:13:27;;;;;;;47.40;19.52;;;1.60;99.90;;;0.07;85.02;101304.50;4968470;28;20036;-87
2024/03/09 00:15:54;;;;;;;42.42;18.02;;;1.60;99.90;;;0.03;85.46;101294.97;4962182;28;20466;-86
2024/03/09 00:18:30;;;;;;;46.78;19.67;;;1.60;99.90;;;0.00;84.67;101293.25;4928678;28;20109;-86
2024/03/09 00:20:56;;;;;;;42.80;18.25;;;1.50;99.90;;;0.00;84.74;101295.84;4975793;28;20037;-85
2024/03/09 00:23:40;;;;;;;46.00;19.45;;;1.60;99.90;;;0.00;85.02;101290.66;4956288;28;20036;-86
2024/03/09 00:26:16;;;;;;;44.92;19.45;;;1.50;99.90;;;-0.05;85.10;101281.97;4991435;28;20128;-86
2024/03/09 00:28:41;;;;;;;;;;;1.50;99.90;;;-0.10;84.96;101283.69;4981787;28;20033;-85
2024/03/09 00:31:07;;;;;;;38.97;17.80;;;1.40;99.90;;;-0.13;84.64;101284.53;4962692;28;19971;-85
2024/03/09 00:33:43;;;;;;;45.63;18.42;;;;;;;-0.16;84.85;101284.50;4983211;28;20512;-85
2024/03/09 00:36:10;;;;;;;46.05;19.50;;;1.40;99.90;;;-0.16;84.61;101279.31;4973676;28;20090;-85
2024/03/09 00:38:41;;;;;;;48.88;20.77;;;1.40;99.90;;;-0.19;85.09;101274.13;4961372;28;20048;-85
2024/03/09 00:41:09;;;;;;;57.40;22.88;;;1.40;99.90;;;-0.18;85.11;101267.22;4949662;28;20040;-85
2024/03/09 00:43:43;;;;;;;50.80;21.73;;;1.30;99.90;;;-0.19;85.00;101271.56;4950470;28;20038;-86
2024/03/09 00:46:11;;;;;;;52.70;21.20;;;1.40;99.90;;;-0.21;85.44;101263.75;4941446;28;20128;-85
2024/03/09 00:48:37;;;;;;;50.67;21.42;;;1.40;99.90;;;-0.21;85.38;101263.75;4947673;28;20039;-85
2024/03/09 00:51:07;;;;;;;49.97;20.85;;;1.20;99.90;;;-0.20;85.01;101256.84;4947946;28;20034;-84
2024/03/09 00:53:42;;;;;;;51.55;21.55;;;1.30;99.90;;;-0.21;85.14;101260.31;4981119;28;20039;-85
2024/03/09 00:56:07;;;;;;;49.05;19.92;;;1.30;99.90;;;-0.22;85.40;101261.16;4927306;28;20069;-85
2024/03/09 00:58:36;;;;;;;51.10;22.17;;;1.30;99.90;;;-0.25;85.13;101254.25;4933998;28;20327;-85
2024/03/09 01:01:10;;;;;;;48.75;20.55;;;1.30;99.90;;;-0.26;85.54;101255.13;4885448;28;20034;-84
2024/03/09 01:03:36;;;;;;;56.63;23.08;;;1.30;99.90;;;-0.25;85.31;101250.81;4957280;28;20035;-84
2024/03/09 01:06:11;;;;;;;56.83;23.05;;;1.30;99.90;;;-0.25;85.52;101254.25;4974453;28;20050;-84
2024/03/09 01:08:38;;;;;;;57.40;22.08;;;1.30;99.90;;;-0.25;85.50;101249.06;4960487;28;20045;-84
2024/03/09 01:11:05;;;;;;;49.38;21.85;;;1.30;99.90;;;-0.28;85.71;101249.06;4967070;28;20120;-84
2024/03/09 01:13:31;;;;;;;50.38;22.52;;;1.30;99.90;;;-0.28;85.85;101249.06;5015965;28;20089;-84
2024/03/09 01:16:04;;;;;;;59.10;22.15;;;1.30;99.90;;;-0.26;85.65;101247.34;4983388;28;20033;-84
2024/03/09 01:18:30;;;;;;;50.63;21.67;;;1.30;99.90;;;-0.27;86.29;101245.59;4976235;28;20508;-83
2024/03/09 01:20:56;;;;;;;53.55;23.00;;;1.30;99.90;;;-0.28;85.84;101240.41;4944302;28;20124;-84
2024/03/09 01:23:37;;;;;;;52.10;21.90;;;1.30;99.90;;;-0.28;85.75;101238.72;4970979;28;20120;-84
2024/03/09 01:26:03;;;;;;;60.28;23.23;;;1.20;99.90;;;-0.31;86.00;101240.41;4955111;28;20040;-84
2024/03/09 01:28:41;;;;;;;49.83;22.33;;;1.30;99.90;;;-0.32;86.44;101236.09;4940485;28;20033;-84
2024/03/09 01:31:12;;;;;;;55.85;21.33;;;1.20;99.90;;;-0.34;85.87;101236.09;5005375;28;20037;-84
2024/03/09 01:33:38;;;;;;;54.30;22.20;;;1.20;99.90;;;-0.33;85.94;101236.94;4970900;28;20050;-83
2024/03/09 01:36:05;;;;;;;49.90;21.83;;;1.20;99.90;;;-0.35;86.15;101236.91;4977716;28;20516;-83
2024/03/09 01:38:31;;;;;;;51.70;22.17;;;1.20;99.90;;;-0.37;85.62;101230.88;5002457;28;20028;-82
2024/03/09 01:40:56;;;;;;;59.10;21.98;;;1.20;99.90;;;-0.37;86.12;101235.19;4987297;28;20040;-83
2024/03/09 01:43:23;;;;;;;50.95;21.95;;;1.20;99.90;;;-0.41;85.32;101226.56;4999035;28;20046;-83
2024/03/09 01:45:55;;;;;;;59.22;23.90;;;1.10;99.90;;;-0.43;85.92;101223.94;5037611;28;20073;-82
2024/03/09 01:48:22;;;;;;;51.53;21.30;;;1.10;99.90;;;-0.45;86.10;101223.06;4973633;28;20176;-83
2024/03/09 01:50:49;;;;;;;52.15;22.27;;;1.10;99.90;;;-0.43;85.83;101223.09;4950918;28;20041;-82
2024/03/09 01:53:28;;;;;;;58.67;24.17;;;1.10;99.90;;;-0.46;86.02;101217.88;4940737;28;20032;-83
2024/03/09 01:55:59;;;;;;;55.15;23.08;;;1.10;99.90;;;-0.46;85.97;101217.88;4961014;28;20045;-83
2024/03/09 01:58:27;;;;;;;55.53;23.92;;;1.10;99.90;;;-0.47;86.22;101217.03;4991588;28;20049;-83
2024/03/09 02:01:04;;;;;;;56.25;24.33;;;1.10;99.90;;;-0.45;86.11;101210.13;5023316;28;20437;-82
2024/03/09 02:03:31;;;;;;;58.80;23.73;;;1.10;99.90;;;-0.45;86.78;101209.28;4980741;28;20032;-82
2024/03/09 02:05:56;;;;;;;57.28;23.67;;;1.10;99.90;;;-0.45;86.27;101201.53;4940481;28;20041;-83
2024/03/09 02:08:30;;;;;;;56.85;24.23;;;1.10;99.90;;;-0.46;86.23;101199.78;4929897;28;20507;-82
2024/03/09 02:10:59;;;;;;;60.72;23.90;;;1.10;99.90;;;-0.46;86.66;101189.41;4976856;28;20118;-83
2024/03/09 02:13:28;;;;;;;55.53;23.33;;;1.10;99.90;;;-0.46;86.28;101189.41;4979404;28;20554;-83
2024/03/09 02:15:54;;;;;;;53.67;24.63;;;1.10;99.90;;;-0.48;86.40;101185.97;4974441;28;20116;-83
2024/03/09 02:18:29;;;;;;;52.50;23.27;;;1.10;99.90;;;-0.46;86.47;101192.00;5004051;28;20072;-83
2024/03/09 02:20:57;;;;;;;53.33;22.60;;;1.10;99.90;;;-0.48;86.89;101184.22;4973806;28;20041;-83
2024/03/09 02:23:31;;;;;;;57.10;24.55;;;1.10;99.90;;;-0.45;86.77;101183.41;4989513;28;20037;-83
2024/03/09 02:26:00;;;;;;;52.75;23.08;;;1.10;99.90;;;-0.44;86.90;101183.41;4973564;28;20049;-83
2024/03/09 02:28:54;;;;;;;;;;;;;;;;;;;;;
2024/03/09 02:31:16;;;;;;;56.95;23.95;;;1.10;99.90;;;-0.41;87.23;101174.81;4990011;28;20036;-83
2024/03/09 02:33:45;;;;;;;52.10;22.77;;;1.10;99.90;;;-0.42;87.11;101168.75;4965607;28;20064;-83
2024/03/09 02:36:12;;;;;;;54.75;23.67;;;1.20;99.90;;;-0.40;87.54;101176.53;4950953;28;20033;-84
2024/03/09 02:38:47;;;;;;;54.22;24.30;;;1.20;99.90;;;-0.39;87.03;101169.63;4961039;28;20122;-83
2024/03/09 02:41:13;;;;;;;55.40;23.25;;;1.20;99.90;;;-0.38;87.27;101167.06;4967230;28;20036;-84
2024/03/09 02:43:39;;;;;;;55.88;23.77;;;1.20;99.90;;;-0.36;87.53;101169.66;4992554;28;20524;-83
2024/03/09 02:46:10;;;;;;;57.22;22.77;;;1.20;99.90;;;-0.33;86.92;101161.91;5010782;28;20082;-83
2024/03/09 02:48:36;;;;;;;51.72;22.98;;;1.20;99.90;;;-0.31;87.66;101158.44;4988689;28;20033;-83
2024/03/09 02:51:02;;;;;;;55.55;24.08;;;1.20;99.90;;;-0.28;87.13;101163.66;4964873;28;20080;-83
2024/03/09 02:53:28;;;;;;;53.45;22.92;;;1.30;99.90;;;-0.27;87.02;101167.09;4943317;28;20095;-83
2024/03/09 02:56:05;;;;;;;50.35;21.80;;;1.30;99.90;;;-0.28;86.66;101153.31;5008504;28;20037;-82
2024/03/09 02:58:32;;;;;;;55.13;23.00;;;1.30;99.90;;;-0.28;87.03;101160.19;4946151;28;20045;-82
2024/03/09 03:00:58;;;;;;;58.72;23.60;;;1.30;99.90;;;-0.29;86.99;101154.16;4930422;28;20043;-83
2024/03/09 03:06:10;;;;;;;57.17;24.20;;;1.20;99.90;;;-0.32;86.79;101153.28;4961363;28;21220;-82
2024/03/09 03:08:36;;;;;;;56.42;23.83;;;1.20;99.90;;;-0.34;86.89;101155.88;5009719;28;20548;-81
2024/03/09 03:11:02;;;;;;;52.78;23.10;;;1.20;99.90;;;-0.34;86.89;101149.84;5027099;28;20043;-82
2024/03/09 03:13:28;;;;;;;53.92;23.67;;;1.20;99.90;;;-0.34;86.84;101150.69;5004418;28;20070;-82
2024/03/09 03:15:54;;;;;;;55.92;23.98;;;1.20;99.90;;;-0.33;87.04;101151.53;4975396;28;20060;-82
2024/03/09 03:18:28;;;;;;;57.78;24.30;;;1.20;99.90;;;-0.34;87.03;101139.47;5005436;28;20471;-82
2024/03/09 03:20:54;;;;;;;53.42;23.55;;;1.20;99.90;;;-0.36;86.66;101139.47;5004263;28;20040;-82
2024/03/09 03:23:20;;;;;;;56.00;24.80;;;1.20;99.90;;;-0.40;86.51;101129.94;5001370;28;20039;-81
2024/03/09 03:25:45;;;;;;;59.67;24.10;;;1.20;99.90;;;-0.41;86.42;101136.00;4947859;28;20517;-82
2024/03/09 03:28:19;;;;;;;52.75;23.75;;;1.10;99.90;;;-0.44;86.56;101134.25;4981733;28;20115;-82
2024/03/09 03:30:45;;;;;;;54.78;23.33;;;1.10;99.90;;;-0.43;86.70;101129.94;5020141;28;20052;-81
2024/03/09 03:33:11;;;;;;;52.97;23.95;;;1.20;99.90;;;-0.41;86.71;101133.41;5005132;28;20064;-81
2024/03/09 03:35:36;;;;;;;55.38;23.77;;;1.20;99.90;;;-0.39;86.87;101133.41;4974953;28;20084;-81
2024/03/09 03:38:11;;;;;;;56.60;24.73;;;1.20;99.90;;;-0.38;86.74;101136.00;4984254;28;20056;-81
2024/03/09 03:40:37;;;;;;;53.03;23.33;;;1.20;99.90;;;-0.35;86.91;101135.16;4998560;28;20409;-81
2024/03/09 03:43:03;;;;;;;56.95;23.92;;;1.20;99.90;;;-0.33;86.85;101126.53;5025909;28;20040;-81
2024/03/09 03:45:30;;;;;;;53.15;23.83;;;1.20;99.90;;;-0.30;86.97;101131.72;4997676;28;20098;-81
2024/03/09 03:47:55;;;;;;;60.85;24.55;;;1.30;99.90;;;-0.27;86.83;101129.16;4979518;28;20116;-81
2024/03/09 03:50:30;;;;;;;55.25;22.73;;;1.30;99.90;;;-0.25;86.93;101124.00;4962841;28;20123;-81
2024/03/09 03:52:56;;;;;;;53.70;24.23;;;1.30;99.90;;;-0.26;86.82;101128.31;5041550;28;20036;-81
2024/03/09 03:55:22;;;;;;;58.30;24.33;;;1.30;99.90;;;-0.24;86.37;101120.53;5013858;28;20056;-81
2024/03/09 03:57:50;;;;;;;55.80;23.27;;;1.30;99.90;;;-0.25;86.64;101124.84;5017785;28;20045;-81
2024/03/09 04:00:20;;;;;;;56.10;24.70;;;1.30;99.90;;;-0.24;86.30;101120.53;4951091;28;20032;-81
2024/03/09 04:02:46;;;;;;;53.92;23.83;;;1.30;99.90;;;-0.26;86.50;101128.31;4978443;28;20405;-80
2024/03/09 04:05:14;;;;;;;53.55;23.50;;;1.30;99.90;;;-0.26;85.84;101120.53;4990491;28;20049;-80
2024/03/09 04:07:47;;;;;;;63.28;24.85;;;1.30;99.90;;;-0.26;86.58;101125.72;5022246;28;20101;-80
2024/03/09 04:10:14;;;;;;;56.53;23.95;;;1.30;99.90;;;-0.26;86.42;101125.72;5005187;28;20413;-80
2024/03/09 04:12:40;;;;;;;57.15;24.63;;;1.30;99.90;;;-0.24;86.24;101113.66;5021973;28;20036;-80
2024/03/09 04:15:13;;;;;;;64.72;23.70;;;1.30;99.90;;;-0.25;86.52;101117.09;4992254;28;20145;-80
2024/03/09 04:17:42;;;;;;;58.13;24.77;;;1.30;99.90;;;-0.24;86.32;101113.66;4978839;28;20024;-79
2024/03/09 04:20:11;;;;;;;59.90;23.98;;;1.30;99.90;;;-0.22;86.42;101117.09;4992071;28;20127;-80
2024/03/09 04:22:45;;;;;;;57.05;23.95;;;1.30;99.90;;;-0.21;85.78;101116.25;4990636;28;20040;-80
2024/03/09 04:25:14;;;;;;;56.75;24.80;;;1.30;99.90;;;-0.19;86.19;101117.94;4969930;28;20120;-80
2024/03/09 04:27:47;;;;;;;60.42;24.35;;;1.30;99.90;;;-0.20;86.38;101109.31;4996003;28;20029;-79
2024/03/09 04:30:15;;;;;;;60.40;25.13;;;1.40;99.90;;;-0.18;86.54;101105.03;4972512;28;20548;-81
2024/03/09 04:32:41;;;;;;;56.40;24.25;;;1.40;99.90;;;-0.13;86.36;101107.63;4994780;28;20083;-79
2024/03/09 04:35:07;;;;;;;53.08;23.65;;;1.40;99.90;;;-0.13;86.35;101105.03;5022925;28;20057;-79
2024/03/09 04:37:41;;;;;;;61.50;26.17;;;1.40;99.90;;;-0.09;86.36;101109.38;4988715;28;20035;-79
2024/03/09 04:40:15;;;;;;;55.10;23.90;;;1.40;99.90;;;-0.07;86.41;101102.47;5018689;28;20037;-79
2024/03/09 04:42:49;;;;;;;54.92;24.67;;;1.50;99.90;;;-0.03;86.04;101096.44;4974101;28;20029;-79
2024/03/09 04:45:22;;;;;;;56.47;24.00;;;1.50;99.90;;;-0.04;85.99;101113.72;5021595;28;20403;-80
2024/03/09 04:47:49;;;;;;;53.92;24.70;;;1.50;99.90;;;-0.03;86.16;101105.06;4950989;28;20537;-79
2024/03/09 04:50:23;;;;;;;57.15;24.38;;;1.50;99.90;;;-0.03;86.27;101101.63;4991357;28;20328;-79
2024/03/09 04:52:50;;;;;;;58.60;24.95;;;1.50;99.90;;;-0.01;86.50;101090.41;4963836;28;20560;-79
2024/03/09 04:55:27;;;;;;;62.53;24.92;;;1.60;99.90;;;0.03;86.57;101098.19;4985007;28;20134;-80
2024/03/09 04:57:54;;;;;;;57.33;24.33;;;1.60;99.90;;;0.04;85.86;101090.41;5012310;28;20021;-79
2024/03/09 05:00:20;;;;;;;55.17;25.02;;;1.60;99.90;;;0.05;86.16;101092.16;4995106;28;20946;-79
2024/03/09 05:02:48;;;;;;;53.72;23.63;;;1.60;99.90;;;0.09;85.45;101087.88;5025667;28;20037;-80
2024/03/09 05:05:21;;;;;;;57.53;25.40;;;1.60;99.90;;;0.10;85.75;101087.84;4991698;28;20024;-79
2024/03/09 05:07:51;;;;;;;52.65;23.17;;;1.60;99.90;;;0.08;85.79;101081.78;4936809;28;20091;-79
2024/03/09 05:10:19;;;;;;;54.75;24.75;;;1.60;99.90;;;0.10;85.43;101076.63;4940775;28;20038;-80
2024/03/09 05:12:53;;;;;;;55.70;24.75;;;1.60;99.90;;;0.09;85.64;101083.53;4964856;28;20508;-80
2024/03/09 05:15:29;;;;;;;53.85;24.30;;;1.60;99.90;;;0.10;85.41;101077.50;4979856;28;20035;-79
2024/03/09 05:17:59;;;;;;;59.13;25.80;;;1.60;99.90;;;0.07;85.34;101080.09;4974533;28;20106;-79
2024/03/09 05:20:27;;;;;;;60.38;25.92;;;1.60;99.90;;;0.06;85.45;101080.06;4994870;28;20100;-80
2024/03/09 05:22:57;;;;;;;67.38;26.35;;;1.60;99.90;;;0.08;85.38;101076.63;4952278;28;20503;-78
2024/03/09 05:25:26;;;;;;;57.03;25.63;;;1.60;99.90;;;0.07;85.47;101077.50;4997743;28;20493;-79
2024/03/09 05:27:54;;;;;;;62.15;24.95;;;1.60;99.90;;;0.07;85.41;101074.06;5018569;28;20629;-79
2024/03/09 05:30:28;;;;;;;61.28;25.17;;;1.60;99.90;;;0.09;86.06;101072.31;4995767;28;20114;-79
2024/03/09 05:32:59;;;;;;;61.70;25.48;;;1.60;99.90;;;0.09;85.61;101069.75;4988466;28;20102;-78
2024/03/09 05:35:30;;;;;;;57.13;25.35;;;1.60;99.90;;;0.10;85.71;101068.88;4991843;28;20041;-79
2024/03/09 05:38:03;;;;;;;55.75;24.42;;;1.70;99.90;;;0.10;85.64;101069.72;5002906;28;20027;-78
2024/03/09 05:40:31;;;;;;;55.33;24.85;;;1.60;99.90;;;0.10;85.51;101068.88;5001610;28;20040;-77
2024/03/09 05:43:02;;;;;;;60.17;25.77;;;1.70;99.90;;;0.11;85.37;101071.47;4953073;28;20027;-78
2024/03/09 05:45:28;;;;;;;64.07;25.80;;;1.60;99.90;;;0.09;85.46;101067.16;5010143;28;20028;-79
2024/03/09 05:48:03;;;;;;;52.90;25.90;;;1.60;99.90;;;0.08;85.64;101066.25;4992858;28;20091;-78
2024/03/09 05:50:29;;;;;;;60.90;25.13;;;1.60;99.90;;;0.09;85.81;101065.41;4971754;28;20678;-79
2024/03/09 05:53:01;;;;;;;57.42;25.67;;;1.60;99.90;;;0.09;85.65;101067.16;5005138;28;20111;-79
2024/03/09 05:55:29;;;;;;;59.35;25.90;;;1.60;99.90;;;0.09;85.41;101068.00;4984452;28;20039;-78
2024/03/09 05:57:56;;;;;;;65.80;26.55;;;1.60;99.90;;;0.10;85.78;101068.88;5009460;28;20167;-79
2024/03/09 06:00:27;;;;;;;54.63;24.00;;;1.60;99.90;;;0.11;85.80;101067.97;4981801;28;20045;-78
2024/03/09 06:03:03;;;;;;;61.40;24.90;;;1.70;99.90;;;0.11;85.90;101063.69;5002367;28;20111;-79
2024/03/09 06:05:30;;;;;;;53.72;24.85;;;1.60;99.90;;;0.13;85.93;101063.69;5013324;28;20516;-79
2024/03/09 06:08:07;;;;;;;63.17;26.67;;;1.60;99.90;;;0.15;85.66;101061.94;4926407;28;20048;-79
2024/03/09 06:10:33;;;;;;;61.92;26.30;;;1.70;99.90;;;0.15;85.93;101056.78;4976433;28;20034;-79
2024/03/09 06:12:58;;;;;;;56.80;26.45;;;1.70;99.90;;;0.17;85.87;101061.13;5018812;28;20050;-79
2024/03/09 06:15:29;;;;;;;63.42;26.02;;;1.70;99.90;;;0.19;85.93;101059.41;4989275;28;20119;-79
2024/03/09 06:17:59;;;;;;;62.92;27.05;;;1.70;99.90;;;0.25;85.90;101062.84;4991795;28;20032;-79
2024/03/09 06:20:38;;;;;;;;;;;;;;;;;;;;;
2024/03/09 06:23:04;;;;;;;54.90;25.50;;;1.80;99.90;;;0.34;85.52;101068.03;4999560;28;20862;-79
2024/03/09 06:25:30;;;;;;;53.08;25.10;;;1.80;99.90;;;0.39;85.75;101071.50;4986880;28;20033;-79
2024/03/09 06:28:02;;;;;;;59.03;26.45;;;1.90;99.90;;;0.48;86.21;101062.88;5004587;28;20395;-79
2024/03/09 06:30:28;;;;;;;62.17;26.63;;;2.00;99.90;;;0.58;85.84;101072.34;5008142;28;20033;-79
2024/03/09 06:32:55;;;;;;;67.95;27.25;;;2.00;99.90;;;0.66;85.76;101070.63;4980130;28;20049;-79
2024/03/09 06:35:25;;;;;;;60.58;24.60;;;2.10;99.90;;;0.72;85.83;101074.97;4969454;28;20037;-79
2024/03/09 06:38:08;;;;;;;58.70;25.25;;;2.20;99.90;;;0.79;85.67;101072.34;5023446;28;20068;-79
2024/03/09 06:40:41;;;;;;;63.50;25.58;;;2.30;99.90;;;0.88;85.40;101076.66;5002097;28;20104;-80
2024/03/09 06:43:17;;;;;;;58.85;25.83;;;2.30;99.90;;;0.97;85.37;101073.19;4972089;28;20037;-80
2024/03/09 06:45:47;;;;;;;57.60;26.73;;;2.40;99.90;;;1.07;85.50;101074.91;4967579;28;20098;-79
2024/03/09 06:48:23;;;;;;;56.95;24.98;;;2.50;99.90;;;1.18;85.49;101069.69;4972551;28;20030;-80
2024/03/09 06:50:49;;;;;;;54.25;25.00;;;2.60;99.90;;;1.27;85.09;101082.63;5025980;28;20103;-79
2024/03/09 06:53:15;;;;;;;58.58;26.25;;;2.70;99.90;;;1.35;85.42;101075.69;4968372;28;20041;-80
2024/03/09 06:55:47;;;;;;;59.58;27.38;;;2.80;99.90;;;1.50;84.77;101068.75;4926884;28;20033;-80
2024/03/09 06:58:13;;;;;;;57.35;26.58;;;2.90;99.90;;;1.61;84.61;101072.16;4976774;28;20108;-80
2024/03/09 07:00:39;;;;;;;56.22;26.73;;;3.00;99.90;;;1.74;84.30;101079.00;4964160;28;20663;-80
2024/03/09 07:03:05;;;;;;;56.13;26.92;;;3.10;99.90;;;1.86;84.35;101067.72;4990798;28;20098;-80
2024/03/09 07:05:31;;;;;;;58.58;24.83;;;3.30;99.90;;;1.99;84.09;101071.09;4982538;28;20040;-80
2024/03/09 07:08:01;;;;;;;62.60;26.15;;;3.40;99.90;;;2.10;83.79;101069.31;4970369;28;20127;-80
2024/03/09 07:10:28;;;;;;;59.60;26.38;;;3.50;99.90;;;2.20;83.14;101075.28;5025652;28;20479;-81
2024/03/09 07:12:59;;;;;;;60.95;26.45;;;3.60;99.90;;;2.34;83.48;101073.47;4965851;28;20032;-82
2024/03/09 07:15:36;;;;;;;63.08;27.63;;;3.70;99.90;;;2.51;83.19;101077.69;4986510;28;20449;-81
2024/03/09 07:18:03;;;;;;;60.55;27.45;;;3.80;99.90;;;2.62;82.66;101076.72;4929565;28;20037;-81
2024/03/09 07:20:37;;;;;;;63.08;27.13;;;3.90;99.90;;;2.75;82.49;101077.47;4992257;28;20083;-81
2024/03/09 07:23:06;;;;;;;61.85;27.63;;;4.10;99.90;;;2.91;82.23;101075.59;4965326;28;20048;-81
2024/03/09 07:25:31;;;;;;;57.55;26.13;;;4.30;99.90;;;3.06;82.05;101085.00;4959961;28;20045;-80
2024/03/09 07:28:02;;;;;;;65.03;27.65;;;4.40;99.90;;;3.18;81.63;101078.81;4966467;28;20028;-80
2024/03/09 07:30:31;;;;;;;53.45;25.55;;;4.50;99.90;;;3.24;80.95;101081.31;4963237;28;20033;-81
2024/03/09 07:32:58;;;;;;;55.72;26.77;;;4.60;99.90;;;3.34;80.65;101082.09;4960346;28;20048;-82
2024/03/09 07:35:30;;;;;;;61.35;27.85;;;4.70;99.90;;;3.46;80.22;101081.97;4975119;28;20044;-81
2024/03/09 07:37:58;;;;;;;59.90;25.73;;;4.80;99.90;;;3.58;79.88;101086.16;4997752;28;20029;-81
2024/03/09 07:40:25;;;;;;;71.03;30.40;;;4.90;99.90;;;3.68;79.60;101082.56;4996441;28;20047;-81
2024/03/09 07:43:01;;;;;;;63.38;27.65;;;5.00;99.90;;;3.80;80.07;101090.25;5014803;28;20032;-83
2024/03/09 07:45:28;;;;;;;56.50;28.38;;;5.10;99.90;;;3.93;79.54;101083.13;4965202;28;20412;-81
2024/03/09 07:47:54;;;;;;;59.80;28.52;;;5.20;99.90;;;4.03;79.38;101076.03;4956667;28;20037;-82
2024/03/09 07:50:43;;;;;;;66.15;30.63;;;5.30;99.90;;;4.16;78.61;101081.94;4929474;28;20095;-81
2024/03/09 07:53:09;;;;;;;67.03;30.45;;;5.50;99.90;;;4.29;78.43;101084.31;4913804;29;20070;-80
2024/03/09 07:55:34;;;;;;;63.75;30.20;;;5.60;99.90;;;4.45;78.31;101097.13;4896888;28;20719;-80
2024/03/09 07:58:00;;;;;;;60.03;29.40;;;5.70;99.90;;;4.57;77.69;101086.50;4945332;28;20036;-80
2024/03/09 08:00:27;;;;;;;61.35;30.48;;;5.80;99.90;;;4.70;77.48;101092.38;4898715;28;20041;-81
2024/03/09 08:02:59;;;;;;;63.60;30.70;;;6.00;99.90;;;4.85;77.75;101086.91;4899302;28;20145;-81
2024/03/09 08:05:26;;;;;;;68.43;32.00;;;6.10;99.90;;;4.97;76.70;101098.03;4862521;28;20409;-81
2024/03/09 08:07:53;;;;;;;60.70;29.05;;;6.20;99.90;;;5.08;76.04;101093.50;4908957;28;20035;-81
2024/03/09 08:10:31;;;;;;;66.90;31.35;;;6.30;99.90;;;5.16;75.47;101093.34;4911924;28;20035;-80
2024/03/09 08:12:58;;;;;;;71.47;30.45;;;6.40;99.90;;;5.27;74.97;101099.22;4924242;28;20048;-80
2024/03/09 08:15:33;;;;;;;71.35;32.08;;;6.60;99.90;;;5.42;74.93;101101.56;4878150;28;20035;-80
2024/03/09 08:18:00;;;;;;;60.05;30.75;;;6.70;99.90;;;5.58;74.78;101107.34;4902603;28;20040;-80
2024/03/09 08:20:26;;;;;;;69.63;32.53;;;6.80;99.90;;;5.64;73.33;101107.22;4911458;28;20039;-81
2024/03/09 08:22:58;;;;;;;64.95;31.00;;;6.90;99.90;;;5.72;72.87;101114.88;4895439;28;20035;-80
2024/03/09 08:25:27;;;;;;;66.40;31.88;;;6.90;99.90;;;5.64;72.25;101111.59;4925385;28;20063;-81
2024/03/09 08:27:54;;;;;;;63.22;31.08;;;6.90;99.90;;;5.70;72.25;101116.66;4934675;28;20039;-80
2024/03/09 08:30:27;;;;;;;69.57;31.95;;;7.00;99.90;;;5.80;72.45;101106.91;4961758;28;20038;-79
2024/03/09 08:33:05;;;;;;;62.05;31.88;;;7.10;99.90;;;5.93;73.00;101105.75;5019693;28;20108;-82
2024/03/09 08:35:33;;;;;;;66.90;31.13;;;7.20;99.90;;;5.97;72.42;101111.81;5032569;28;20036;-80
2024/03/09 08:37:59;;;;;;;66.30;31.75;;;7.30;99.90;;;6.10;72.04;101110.66;5036523;28;20419;-80
2024/03/09 08:40:34;;;;;;;63.70;29.25;;;7.30;99.90;;;6.17;71.56;101114.84;5000013;28;20154;-80
2024/03/09 08:43:00;;;;;;;67.03;32.72;;;7.40;99.90;;;6.22;71.15;101101.66;5032039;28;20471;-81
2024/03/09 08:45:32;;;;;;;64.05;33.00;;;7.50;99.90;;;6.36;71.07;101105.69;5053353;28;20045;-82
2024/03/09 08:48:18;;;;;;;69.65;33.88;;;7.60;99.90;;;6.51;71.45;101106.22;5034879;28;20051;-83
2024/03/09 08:50:44;;;;;;;64.68;30.92;;;7.70;99.90;;;6.57;70.05;101106.09;5027980;28;20037;-82
2024/03/09 08:53:11;;;;;;;66.85;32.10;;;7.80;99.90;;;6.57;69.86;101101.72;5010356;28;20112;-82
2024/03/09 08:55:39;;;;;;;64.55;31.00;;;7.90;99.90;;;6.71;69.76;101100.50;4988251;28;20500;-81
2024/03/09 08:58:14;;;;;;;58.80;31.10;;;8.00;99.90;;;6.81;69.92;101107.25;4997062;28;20039;-81
2024/03/09 09:00:40;;;;;;;67.88;32.80;;;8.00;99.90;;;6.88;68.97;101105.34;4998626;28;20087;-81
2024/03/09 09:03:17;;;;;;;60.45;31.38;;;8.20;99.90;;;7.15;69.76;101094.16;5038630;28;20048;-83
2024/03/09 09:05:47;;;;;;;69.03;32.08;;;8.40;99.90;;;7.28;68.04;101104.28;4965936;28;20057;-83
2024/03/09 09:08:30;;;;;;;64.63;31.55;;;8.50;99.90;;;7.43;67.51;101103.88;5011710;28;20045;-83
2024/03/09 09:11:02;;;;;;;62.05;29.92;;;8.60;99.90;;;7.55;67.35;101103.53;5021481;28;20496;-83
2024/03/09 09:13:31;;;;;;;59.65;30.88;;;8.70;99.90;;;7.56;66.34;101100.03;4987815;28;20041;-83
2024/03/09 09:16:35;;;;;;;64.10;29.40;;;8.70;99.90;;;7.65;66.24;101105.91;4932727;28;20516;-83
2024/03/09 09:19:02;;;;;;;59.47;30.10;;;8.90;99.90;;;7.70;65.29;101099.63;4944920;28;20035;-83
2024/03/09 09:21:30;;;;;;;54.30;28.23;;;8.90;99.90;;;7.74;64.67;101100.41;4968706;28;20046;-84
2024/03/09 09:24:02;;;;;;;55.05;28.95;;;9.00;99.90;;;7.92;65.28;101081.50;4972065;28;20096;-83
2024/03/09 09:26:32;;;;;;;56.70;28.77;;;9.20;99.90;;;8.12;65.40;101080.03;4934399;28;20054;-83
2024/03/09 09:28:59;;;;;;;53.38;26.55;;;9.30;99.90;;;8.24;64.21;101084.06;4966586;28;20085;-84
2024/03/09 09:31:29;;;;;;;55.00;27.95;;;9.30;99.90;;;8.23;62.94;101091.06;4959776;28;20041;-84
2024/03/09 09:33:58;;;;;;;49.03;26.40;;;9.40;99.90;;;8.38;63.55;101097.56;4960667;28;20034;-83
2024/03/09 09:36:34;;;;;;;51.80;24.80;;;9.60;99.90;;;8.53;63.51;101093.63;4961375;28;20039;-83
2024/03/09 09:39:01;;;;;;;50.30;26.65;;;9.60;99.90;;;8.55;62.05;101107.56;4991984;28;20529;-82
2024/03/09 09:41:30;;;;;;;47.17;25.40;;;9.70;99.90;;;8.53;61.47;101098.88;4967807;28;20109;-82
2024/03/09 09:44:15;;;;;;;;;;;;;;;;;;;;;
2024/03/09 09:46:47;;;;;;;44.72;24.25;;;9.80;99.90;;;8.72;61.59;101100.00;4995161;28;20510;-81
2024/03/09 09:49:22;;;;;;;41.42;18.52;;;9.90;99.90;;;8.65;60.33;101109.00;4999955;28;20040;-82
2024/03/09 09:52:20;;;;;;;47.60;24.08;;;9.80;99.90;;;8.63;60.97;101100.31;4993993;28;20052;-85
2024/03/09 09:58:19;;;;;;;40.13;22.23;;;10.10;99.90;;;9.02;60.65;101099.91;4778326;29;21595;-84
2024/03/09 10:01:08;;;;;;;42.75;22.33;;;10.30;99.90;;;9.19;60.58;101101.94;4756852;29;20242;-85
2024/03/09 10:03:37;;;;;;;37.90;21.08;;;10.40;99.90;;;9.27;59.45;101104.31;4762341;29;20051;-84
2024/03/09 10:06:33;;;;;;;37.65;20.25;;;10.50;99.90;;;9.31;58.91;101108.53;4764294;29;20047;-84
2024/03/09 10:08:59;;;;;;;39.45;21.83;;;10.50;99.90;;;9.37;59.03;101100.44;4757877;29;20035;-84
2024/03/09 10:11:31;;;;;;;44.00;20.92;;;10.50;99.90;;;9.38;58.81;101107.44;4771077;29;20050;-85
2024/03/09 10:14:01;;;;;;;39.30;19.83;;;10.60;99.90;;;9.49;58.60;101099.16;4780500;29;20039;-85
2024/03/09 10:16:41;;;;;;;42.33;21.40;;;10.60;99.90;;;9.44;57.27;101105.44;4787957;29;20066;-84
2024/03/09 10:19:07;;;;;;;37.40;20.42;;;10.50;99.90;;;9.29;58.03;101102.47;4737998;29;20062;-84
2024/03/09 10:21:42;;;;;;;39.15;21.65;;;10.50;99.90;;;9.38;59.03;101099.53;4790559;29;20063;-84
2024/03/09 10:24:38;;;;;;;37.47;20.35;;;10.70;99.90;;;9.56;59.20;101095.38;4761531;29;20535;-84
2024/03/09 10:30:17;;;;;;;38.78;19.30;;;10.80;99.90;;;9.66;57.31;101104.66;4747938;29;20555;-85
2024/03/09 10:32:50;;;;;;;39.63;21.00;;;10.90;99.90;;;9.76;57.94;101103.41;4914197;28;20469;-84
2024/03/09 10:35:19;;;;;;;35.10;20.42;;;10.80;99.90;;;9.47;57.72;101099.19;4973430;28;20525;-84
2024/03/09 10:37:57;;;;;;;38.25;20.63;;;10.70;99.90;;;9.38;57.79;101096.91;4996140;28;20048;-84